sensor_id;sensor_type;location;lat;lon;timestamp;pressure;altitude;pressure_sealevel;temperature;humidity
44926;BME280;30662;51.210;7.656;2022-07-29T00:01:39;96357.28;;;17.75;56.86
44926;BME280;30662;51.210;7.656;2022-07-29T00:04:05;96355.72;;;17.58;56.83
44926;BME280;30662;51.210;7.656;2022-07-29T00:06:31;96351.47;;;17.57;57.29
44926;BME280;30662;51.210;7.656;2022-07-29T00:08:56;96349.03;;;17.66;56.12
44926;BME280;30662;51.210;7.656;2022-07-29T00:11:22;96349.25;;;17.80;55.08
44926;BME280;30662;51.210;7.656;2022-07-29T00:13:48;96344.50;;;17.67;55.76
44926;BME280;30662;51.210;7.656;2022-07-29T00:16:16;96347.44;;;17.75;55.00
44926;BME280;30662;51.210;7.656;2022-07-29T04:04:12;96203.47;;;17.36;52.47
44926;BME280;30662;51.210;7.656;2022-07-29T04:06:40;96206.66;;;17.38;52.27
44926;BME280;30662;51.210;7.656;2022-07-29T04:09:06;96204.56;;;17.35;52.58
44926;BME280;30662;51.210;7.656;2022-07-29T04:11:36;96203.75;;;17.34;52.80
44926;BME280;30662;51.210;7.656;2022-07-29T04:14:23;96208.81;;;17.31;52.86
44926;BME280;30662;51.210;7.656;2022-07-29T04:16:49;96209.31;;;17.43;52.24
44926;BME280;30662;51.210;7.656;2022-07-29T04:19:15;96212.47;;;17.45;52.44
44926;BME280;30662;51.210;7.656;2022-07-29T04:21:41;96213.41;;;17.70;52.02
44926;BME280;30662;51.210;7.656;2022-07-29T04:24:07;96217.19;;;17.58;52.09
44926;BME280;30662;51.210;7.656;2022-07-29T04:26:34;96213.13;;;17.71;51.68
44926;BME280;30662;51.210;7.656;2022-07-29T04:29:00;96218.47;;;17.71;51.61
44926;BME280;30662;51.210;7.656;2022-07-29T04:31:26;96219.53;;;17.70;51.12
44926;BME280;30662;51.210;7.656;2022-07-29T04:33:53;96218.72;;;17.70;51.44
44926;BME280;30662;51.210;7.656;2022-07-29T04:36:18;96224.28;;;17.78;51.30
44926;BME280;30662;51.210;7.656;2022-07-29T04:38:55;96222.66;;;17.82;51.75
44926;BME280;30662;51.210;7.656;2022-07-29T04:41:21;96224.28;;;17.78;52.45
44926;BME280;30662;51.210;7.656;2022-07-29T04:43:47;96222.13;;;17.80;52.70
44926;BME280;30662;51.210;7.656;2022-07-29T04:46:13;96220.78;;;17.83;52.62
44926;BME280;30662;51.210;7.656;2022-07-29T04:48:39;96224.06;;;17.70;52.79
44926;BME280;30662;51.210;7.656;2022-07-29T04:51:05;96220.25;;;17.81;52.25
44926;BME280;30662;51.210;7.656;2022-07-29T04:53:30;96221.41;;;17.75;52.95
44926;BME280;30662;51.210;7.656;2022-07-29T04:55:56;96223.53;;;17.73;52.29
44926;BME280;30662;51.210;7.656;2022-07-29T04:58:22;96221.09;;;17.76;53.05
44926;BME280;30662;51.210;7.656;2022-07-29T05:00:49;96221.03;;;17.86;52.25
44926;BME280;30662;51.210;7.656;2022-07-29T05:03:16;96230.38;;;17.84;52.02
44926;BME280;30662;51.210;7.656;2022-07-29T05:05:41;96230.78;;;18.01;51.76
44926;BME280;30662;51.210;7.656;2022-07-29T05:08:08;96230.53;;;17.98;50.90
44926;BME280;30662;51.210;7.656;2022-07-29T05:10:34;96239.63;;;17.97;51.08
44926;BME280;30662;51.210;7.656;2022-07-29T05:13:07;96226.81;;;17.99;51.49
44926;BME280;30662;51.210;7.656;2022-07-29T05:15:34;96231.56;;;18.02;52.13
44926;BME280;30662;51.210;7.656;2022-07-29T05:18:00;96233.44;;;18.01;52.94
44926;BME280;30662;51.210;7.656;2022-07-29T05:20:27;96247.03;;;18.00;54.26
44926;BME280;30662;51.210;7.656;2022-07-29T05:22:55;96249.25;;;17.87;55.34
44926;BME280;30662;51.210;7.656;2022-07-29T05:25:21;96264.66;;;17.96;55.19
44926;BME280;30662;51.210;7.656;2022-07-29T05:27:47;96254.00;;;17.96;55.06
44926;BME280;30662;51.210;7.656;2022-07-29T05:30:16;96283.06;;;17.97;56.03
44926;BME280;30662;51.210;7.656;2022-07-29T05:32:42;96299.66;;;17.84;56.00
44926;BME280;30662;51.210;7.656;2022-07-29T05:35:08;96286.66;;;17.67;56.67
44926;BME280;30662;51.210;7.656;2022-07-29T05:37:34;96274.59;;;17.90;55.13
44926;BME280;30662;51.210;7.656;2022-07-29T05:40:00;96282.00;;;17.93;54.63
44926;BME280;30662;51.210;7.656;2022-07-29T05:42:26;96280.16;;;17.88;54.51
44926;BME280;30662;51.210;7.656;2022-07-29T05:44:52;96279.13;;;17.89;55.33
44926;BME280;30662;51.210;7.656;2022-07-29T05:47:18;96289.72;;;17.95;55.40
44926;BME280;30662;51.210;7.656;2022-07-29T05:49:44;96293.44;;;17.99;55.47
44926;BME280;30662;51.210;7.656;2022-07-29T05:52:11;96279.81;;;18.00;55.68
44926;BME280;30662;51.210;7.656;2022-07-29T05:54:39;96283.25;;;18.06;55.52
44926;BME280;30662;51.210;7.656;2022-07-29T05:57:05;96303.03;;;18.00;55.79
44926;BME280;30662;51.210;7.656;2022-07-29T05:59:35;96302.47;;;18.03;56.11
44926;BME280;30662;51.210;7.656;2022-07-29T06:02:01;96294.44;;;18.08;56.40
44926;BME280;30662;51.210;7.656;2022-07-29T06:04:27;96307.75;;;18.13;56.43
44926;BME280;30662;51.210;7.656;2022-07-29T06:06:53;96307.28;;;18.01;57.10
44926;BME280;30662;51.210;7.656;2022-07-29T06:09:19;96307.16;;;18.16;57.53
44926;BME280;30662;51.210;7.656;2022-07-29T06:11:45;96314.56;;;18.24;57.49
44926;BME280;30662;51.210;7.656;2022-07-29T06:14:11;96321.47;;;18.30;57.95
44926;BME280;30662;51.210;7.656;2022-07-29T06:16:37;96325.66;;;18.02;59.28
44926;BME280;30662;51.210;7.656;2022-07-29T06:19:03;96325.41;;;18.04;59.57
44926;BME280;30662;51.210;7.656;2022-07-29T06:21:30;96311.91;;;17.90;60.60
44926;BME280;30662;51.210;7.656;2022-07-29T06:23:55;96324.88;;;18.02;60.65
44926;BME280;30662;51.210;7.656;2022-07-29T06:26:21;96320.41;;;17.92;61.07
44926;BME280;30662;51.210;7.656;2022-07-29T06:28:56;96318.81;;;17.91;61.28
44926;BME280;30662;51.210;7.656;2022-07-29T06:31:22;96313.69;;;18.00;61.11
44926;BME280;30662;51.210;7.656;2022-07-29T06:33:48;96316.28;;;18.10;61.20
44926;BME280;30662;51.210;7.656;2022-07-29T06:36:14;96323.75;;;18.08;61.08
44926;BME280;30662;51.210;7.656;2022-07-29T06:38:41;96324.53;;;18.13;61.13
44926;BME280;30662;51.210;7.656;2022-07-29T06:41:17;96315.59;;;18.33;60.09
44926;BME280;30662;51.210;7.656;2022-07-29T06:43:44;96325.28;;;18.19;60.62
44926;BME280;30662;51.210;7.656;2022-07-29T06:46:19;96322.81;;;18.28;60.88
44926;BME280;30662;51.210;7.656;2022-07-29T06:48:46;96328.63;;;18.35;60.22
44926;BME280;30662;51.210;7.656;2022-07-29T06:51:13;96332.13;;;18.30;60.43
44926;BME280;30662;51.210;7.656;2022-07-29T06:53:39;96332.13;;;18.30;60.64
44926;BME280;30662;51.210;7.656;2022-07-29T06:56:24;96325.34;;;18.48;60.19
44926;BME280;30662;51.210;7.656;2022-07-29T06:58:50;96321.91;;;18.42;60.03
44926;BME280;30662;51.210;7.656;2022-07-29T07:01:16;96334.91;;;18.54;59.52
44926;BME280;30662;51.210;7.656;2022-07-29T07:03:42;96329.88;;;18.48;60.15
44926;BME280;30662;51.210;7.656;2022-07-29T07:06:08;96331.50;;;18.43;60.66
44926;BME280;30662;51.210;7.656;2022-07-29T07:08:40;96331.63;;;18.62;59.41
44926;BME280;30662;51.210;7.656;2022-07-29T07:11:06;96338.94;;;18.46;60.22
44926;BME280;30662;51.210;7.656;2022-07-29T07:13:32;96337.91;;;18.42;61.22
44926;BME280;30662;51.210;7.656;2022-07-29T07:16:02;96338.78;;;18.67;59.74
44926;BME280;30662;51.210;7.656;2022-07-29T07:18:29;96345.31;;;18.85;57.92
44926;BME280;30662;51.210;7.656;2022-07-29T07:20:56;96337.19;;;18.95;57.31
44926;BME280;30662;51.210;7.656;2022-07-29T07:23:22;96336.03;;;19.06;57.52
44926;BME280;30662;51.210;7.656;2022-07-29T07:25:48;96340.97;;;19.18;56.67
44926;BME280;30662;51.210;7.656;2022-07-29T07:28:14;96331.59;;;19.20;57.42
44926;BME280;30662;51.210;7.656;2022-07-29T07:30:40;96337.50;;;19.17;58.25
44926;BME280;30662;51.210;7.656;2022-07-29T07:33:05;96334.31;;;19.39;57.38
44926;BME280;30662;51.210;7.656;2022-07-29T07:35:32;96338.66;;;19.54;56.99
44926;BME280;30662;51.210;7.656;2022-07-29T07:37:58;96338.13;;;19.57;57.20
44926;BME280;30662;51.210;7.656;2022-07-29T07:40:24;96330.78;;;19.68;56.17
44926;BME280;30662;51.210;7.656;2022-07-29T07:42:50;96338.66;;;19.54;55.90
44926;BME280;30662;51.210;7.656;2022-07-29T07:45:16;96345.53;;;19.41;56.29
44926;BME280;30662;51.210;7.656;2022-07-29T07:47:43;96330.38;;;19.32;56.55
44926;BME280;30662;51.210;7.656;2022-07-29T07:50:10;96335.06;;;19.21;57.15
44926;BME280;30662;51.210;7.656;2022-07-29T07:52:53;96341.88;;;19.32;57.73
44926;BME280;30662;51.210;7.656;2022-07-29T07:55:20;96344.78;;;19.36;57.68
44926;BME280;30662;51.210;7.656;2022-07-29T07:57:46;96345.88;;;19.35;57.41
44926;BME280;30662;51.210;7.656;2022-07-29T08:00:14;96350.78;;;19.46;56.99
44926;BME280;30662;51.210;7.656;2022-07-29T08:02:40;96348.19;;;19.41;56.40
44926;BME280;30662;51.210;7.656;2022-07-29T08:05:06;96347.41;;;19.65;54.17
44926;BME280;30662;51.210;7.656;2022-07-29T08:07:38;96343.50;;;19.76;53.38
44926;BME280;30662;51.210;7.656;2022-07-29T08:10:04;96343.22;;;19.96;51.29
44926;BME280;30662;51.210;7.656;2022-07-29T08:12:30;96345.31;;;20.18;51.06
44926;BME280;30662;51.210;7.656;2022-07-29T08:14:56;96353.69;;;20.30;49.30
44926;BME280;30662;51.210;7.656;2022-07-29T08:17:22;96343.78;;;20.31;48.86
44926;BME280;30662;51.210;7.656;2022-07-29T08:19:50;96339.59;;;20.44;48.90
44926;BME280;30662;51.210;7.656;2022-07-29T08:22:16;96334.75;;;20.46;48.67
44926;BME280;30662;51.210;7.656;2022-07-29T08:24:42;96340.59;;;20.48;49.66
44926;BME280;30662;51.210;7.656;2022-07-29T08:27:09;96342.59;;;20.56;47.97
44926;BME280;30662;51.210;7.656;2022-07-29T08:29:55;96337.63;;;20.49;47.49
44926;BME280;30662;51.210;7.656;2022-07-29T08:32:22;96333.41;;;20.62;46.54
44926;BME280;30662;51.210;7.656;2022-07-29T08:35:08;96344.66;;;20.78;45.38
44926;BME280;30662;51.210;7.656;2022-07-29T08:37:34;96337.03;;;20.85;45.61
44926;BME280;30662;51.210;7.656;2022-07-29T08:40:00;96337.75;;;20.90;47.08
44926;BME280;30662;51.210;7.656;2022-07-29T08:42:26;96332.00;;;21.11;46.91
44926;BME280;30662;51.210;7.656;2022-07-29T08:44:52;96340.63;;;21.21;47.70
44926;BME280;30662;51.210;7.656;2022-07-29T08:47:19;96341.34;;;21.27;47.17
44926;BME280;30662;51.210;7.656;2022-07-29T08:49:45;96349.28;;;21.18;46.99
44926;BME280;30662;51.210;7.656;2022-07-29T08:52:13;96343.97;;;21.32;46.77
44926;BME280;30662;51.210;7.656;2022-07-29T08:54:43;96336.50;;;21.43;47.06
44926;BME280;30662;51.210;7.656;2022-07-29T08:57:12;96338.09;;;21.58;46.69
44926;BME280;30662;51.210;7.656;2022-07-29T08:59:40;96340.28;;;21.56;46.16
44926;BME280;30662;51.210;7.656;2022-07-29T09:02:15;96332.19;;;21.83;45.13
44926;BME280;30662;51.210;7.656;2022-07-29T09:04:44;96335.94;;;21.96;44.70
44926;BME280;30662;51.210;7.656;2022-07-29T09:07:14;96333.25;;;22.10;44.07
44926;BME280;30662;51.210;7.656;2022-07-29T09:09:40;96327.38;;;21.94;44.25
44926;BME280;30662;51.210;7.656;2022-07-29T09:12:06;96331.38;;;22.10;43.96
44926;BME280;30662;51.210;7.656;2022-07-29T09:14:34;96324.66;;;22.21;43.91
44926;BME280;30662;51.210;7.656;2022-07-29T09:17:00;96324.28;;;22.37;43.98
44926;BME280;30662;51.210;7.656;2022-07-29T09:19:31;96323.56;;;22.45;43.76
44926;BME280;30662;51.210;7.656;2022-07-29T09:22:00;96328.75;;;22.64;43.22
44926;BME280;30662;51.210;7.656;2022-07-29T09:24:46;96329.28;;;22.52;43.50
44926;BME280;30662;51.210;7.656;2022-07-29T09:27:25;96326.25;;;22.67;43.36
44926;BME280;30662;51.210;7.656;2022-07-29T09:30:09;96333.91;;;22.82;43.09
44926;BME280;30662;51.210;7.656;2022-07-29T09:33:05;96328.13;;;22.89;42.77
44926;BME280;30662;51.210;7.656;2022-07-29T09:35:31;96329.44;;;23.00;42.41
44926;BME280;30662;51.210;7.656;2022-07-29T09:37:57;96334.66;;;22.97;42.37
44926;BME280;30662;51.210;7.656;2022-07-29T09:40:26;96328.94;;;22.90;42.28
44926;BME280;30662;51.210;7.656;2022-07-29T09:42:52;96326.16;;;22.81;42.09
44926;BME280;30662;51.210;7.656;2022-07-29T09:45:32;96323.63;;;22.76;41.93
44926;BME280;30662;51.210;7.656;2022-07-29T09:48:12;96317.97;;;23.17;42.18
44926;BME280;30662;51.210;7.656;2022-07-29T09:50:39;96319.00;;;23.38;42.04
44926;BME280;30662;51.210;7.656;2022-07-29T09:53:06;96319.09;;;23.73;41.17
44926;BME280;30662;51.210;7.656;2022-07-29T09:55:32;96319.66;;;23.53;40.66
44926;BME280;30662;51.210;7.656;2022-07-29T09:58:19;96316.47;;;23.42;41.04
44926;BME280;30662;51.210;7.656;2022-07-29T10:00:46;96312.31;;;23.76;40.41
44926;BME280;30662;51.210;7.656;2022-07-29T10:03:13;96318.69;;;24.06;40.06
44926;BME280;30662;51.210;7.656;2022-07-29T10:05:40;96308.84;;;24.01;40.38
44926;BME280;30662;51.210;7.656;2022-07-29T10:08:08;96319.91;;;23.74;40.01
44926;BME280;30662;51.210;7.656;2022-07-29T10:10:36;96311.81;;;23.65;40.58
44926;BME280;30662;51.210;7.656;2022-07-29T10:13:04;96313.13;;;23.85;40.24
44926;BME280;30662;51.210;7.656;2022-07-29T10:15:38;96306.78;;;23.81;40.56
44926;BME280;30662;51.210;7.656;2022-07-29T10:18:07;96309.25;;;23.60;40.85
44926;BME280;30662;51.210;7.656;2022-07-29T10:20:34;96312.94;;;23.24;41.79
44926;BME280;30662;51.210;7.656;2022-07-29T10:23:00;96312.19;;;22.93;42.65
44926;BME280;30662;51.210;7.656;2022-07-29T10:25:26;96302.66;;;22.87;42.77
44926;BME280;30662;51.210;7.656;2022-07-29T10:27:53;96307.47;;;22.98;42.44
44926;BME280;30662;51.210;7.656;2022-07-29T10:30:22;96312.22;;;23.01;42.61
44926;BME280;30662;51.210;7.656;2022-07-29T10:35:33;96316.63;;;23.37;41.89
44926;BME280;30662;51.210;7.656;2022-07-29T10:40:36;96315.03;;;23.27;41.41
44926;BME280;30662;51.210;7.656;2022-07-29T10:43:32;96318.94;;;23.21;41.31
44926;BME280;30662;51.210;7.656;2022-07-29T10:46:03;96321.22;;;22.97;42.16
44926;BME280;30662;51.210;7.656;2022-07-29T10:48:33;96310.03;;;23.03;42.41
44926;BME280;30662;51.210;7.656;2022-07-29T10:51:02;96315.59;;;23.16;42.89
44926;BME280;30662;51.210;7.656;2022-07-29T10:53:50;96317.47;;;23.06;42.66
44926;BME280;30662;51.210;7.656;2022-07-29T10:56:27;96313.06;;;23.10;41.94
44926;BME280;30662;51.210;7.656;2022-07-29T11:01:57;96311.97;;;23.11;42.28
44926;BME280;30662;51.210;7.656;2022-07-29T11:07:10;96312.47;;;23.22;42.23
44926;BME280;30662;51.210;7.656;2022-07-29T11:09:36;96316.28;;;23.30;42.43
44926;BME280;30662;51.210;7.656;2022-07-29T11:15:01;96321.53;;;23.44;43.56
44926;BME280;30662;51.210;7.656;2022-07-29T11:17:28;96318.75;;;23.57;43.82
44926;BME280;30662;51.210;7.656;2022-07-29T11:20:34;96314.53;;;23.74;44.15
44926;BME280;30662;51.210;7.656;2022-07-29T11:28:57;96326.66;;;25.01;41.58
44926;BME280;30662;51.210;7.656;2022-07-29T11:31:46;96325.53;;;25.02;41.53
44926;BME280;30662;51.210;7.656;2022-07-29T11:39:33;96309.75;;;25.30;40.43
44926;BME280;30662;51.210;7.656;2022-07-29T11:47:36;96321.94;;;25.66;39.74
44926;BME280;30662;51.210;7.656;2022-07-29T11:50:08;96306.78;;;26.03;38.50
44926;BME280;30662;51.210;7.656;2022-07-29T11:52:46;96314.81;;;26.11;37.96
44926;BME280;30662;51.210;7.656;2022-07-29T11:55:17;96304.34;;;26.31;37.04
44926;BME280;30662;51.210;7.656;2022-07-29T11:57:52;96308.69;;;26.02;38.03
44926;BME280;30662;51.210;7.656;2022-07-29T12:00:36;96310.28;;;26.24;37.12
44926;BME280;30662;51.210;7.656;2022-07-29T12:03:08;96301.59;;;26.39;37.25
44926;BME280;30662;51.210;7.656;2022-07-29T12:05:42;96302.91;;;26.66;36.45
44926;BME280;30662;51.210;7.656;2022-07-29T12:08:20;96304.97;;;26.94;35.73
44926;BME280;30662;51.210;7.656;2022-07-29T12:10:50;96306.59;;;26.95;35.35
44926;BME280;30662;51.210;7.656;2022-07-29T12:13:18;96311.44;;;26.56;36.40
44926;BME280;30662;51.210;7.656;2022-07-29T12:15:54;96312.47;;;26.64;36.25
44926;BME280;30662;51.210;7.656;2022-07-29T12:18:20;96309.53;;;27.02;36.20
44926;BME280;30662;51.210;7.656;2022-07-29T12:20:57;96312.72;;;27.29;35.87
44926;BME280;30662;51.210;7.656;2022-07-29T12:23:23;96300.91;;;27.45;34.73
44926;BME280;30662;51.210;7.656;2022-07-29T12:25:54;96300.47;;;27.68;34.71
44926;BME280;30662;51.210;7.656;2022-07-29T12:28:21;96305.41;;;27.78;34.96
44926;BME280;30662;51.210;7.656;2022-07-29T12:30:53;96305.84;;;27.56;35.42
44926;BME280;30662;51.210;7.656;2022-07-29T12:33:26;96304.50;;;27.37;35.31
44926;BME280;30662;51.210;7.656;2022-07-29T12:35:58;96307.88;;;27.71;34.90
44926;BME280;30662;51.210;7.656;2022-07-29T12:38:40;96309.63;;;28.03;34.41
44926;BME280;30662;51.210;7.656;2022-07-29T12:41:06;96301.16;;;28.05;34.57
44926;BME280;30662;51.210;7.656;2022-07-29T12:43:32;96297.97;;;27.75;34.69
44926;BME280;30662;51.210;7.656;2022-07-29T12:46:12;96291.75;;;27.74;35.04
44926;BME280;30662;51.210;7.656;2022-07-29T12:48:40;96300.16;;;27.97;34.31
44926;BME280;30662;51.210;7.656;2022-07-29T12:51:08;96295.56;;;27.86;34.68
44926;BME280;30662;51.210;7.656;2022-07-29T12:53:35;96304.38;;;28.23;34.39
44926;BME280;30662;51.210;7.656;2022-07-29T12:56:04;96284.38;;;28.27;34.32
44926;BME280;30662;51.210;7.656;2022-07-29T12:58:50;96290.59;;;28.56;33.69
44926;BME280;30662;51.210;7.656;2022-07-29T13:01:18;96287.50;;;28.42;33.66
44926;BME280;30662;51.210;7.656;2022-07-29T13:03:53;96289.81;;;28.55;33.14
44926;BME280;30662;51.210;7.656;2022-07-29T13:09:07;96288.09;;;28.79;33.48
44926;BME280;30662;51.210;7.656;2022-07-29T13:13:59;96288.34;;;28.58;33.60
44926;BME280;30662;51.210;7.656;2022-07-29T13:16:32;96286.94;;;27.68;34.93
44926;BME280;30662;51.210;7.656;2022-07-29T13:19:10;96286.28;;;27.01;36.54
44926;BME280;30662;51.210;7.656;2022-07-29T13:21:37;96284.06;;;26.46;37.80
44926;BME280;30662;51.210;7.656;2022-07-29T13:24:05;96292.16;;;26.25;38.67
44926;BME280;30662;51.210;7.656;2022-07-29T13:26:32;96296.00;;;26.36;38.98
44926;BME280;30662;51.210;7.656;2022-07-29T13:28:58;96301.97;;;26.29;38.39
44926;BME280;30662;51.210;7.656;2022-07-29T13:31:23;96307.25;;;26.47;38.34
44926;BME280;30662;51.210;7.656;2022-07-29T13:33:49;96292.16;;;26.25;38.93
44926;BME280;30662;51.210;7.656;2022-07-29T13:36:18;96285.44;;;26.64;38.03
44926;BME280;30662;51.210;7.656;2022-07-29T13:38:44;96291.19;;;26.62;38.27
44926;BME280;30662;51.210;7.656;2022-07-29T13:41:10;96278.47;;;26.63;37.64
44926;BME280;30662;51.210;7.656;2022-07-29T13:43:36;96291.72;;;26.56;38.11
44926;BME280;30662;51.210;7.656;2022-07-29T13:46:02;96295.13;;;26.65;38.03
44926;BME280;30662;51.210;7.656;2022-07-29T13:48:28;96295.53;;;27.00;37.56
44926;BME280;30662;51.210;7.656;2022-07-29T13:50:53;96296.50;;;26.71;38.15
44926;BME280;30662;51.210;7.656;2022-07-29T13:53:19;96302.81;;;26.42;38.84
44926;BME280;30662;51.210;7.656;2022-07-29T13:55:52;96303.50;;;25.97;39.65
44926;BME280;30662;51.210;7.656;2022-07-29T13:58:18;96302.00;;;26.08;38.41
44926;BME280;30662;51.210;7.656;2022-07-29T14:00:44;96310.41;;;25.86;39.47
44926;BME280;30662;51.210;7.656;2022-07-29T14:03:11;96307.91;;;25.81;39.78
44926;BME280;30662;51.210;7.656;2022-07-29T14:05:37;96313.91;;;25.57;41.11
44926;BME280;30662;51.210;7.656;2022-07-29T14:08:03;96314.22;;;25.85;40.60
44926;BME280;30662;51.210;7.656;2022-07-29T14:10:28;96312.56;;;26.13;39.99
44926;BME280;30662;51.210;7.656;2022-07-29T14:12:54;96303.56;;;26.09;39.14
44926;BME280;30662;51.210;7.656;2022-07-29T14:15:20;96300.19;;;26.33;38.69
44926;BME280;30662;51.210;7.656;2022-07-29T14:17:46;96296.44;;;26.26;39.54
44926;BME280;30662;51.210;7.656;2022-07-29T14:20:12;96300.78;;;25.76;39.80
44926;BME280;30662;51.210;7.656;2022-07-29T14:22:38;96304.34;;;25.30;40.00
44926;BME280;30662;51.210;7.656;2022-07-29T14:25:10;96305.78;;;25.27;39.64
44926;BME280;30662;51.210;7.656;2022-07-29T14:27:41;96309.09;;;25.33;39.60
44926;BME280;30662;51.210;7.656;2022-07-29T14:30:07;96313.47;;;25.46;39.91
44926;BME280;30662;51.210;7.656;2022-07-29T14:32:33;96317.34;;;25.37;39.57
44926;BME280;30662;51.210;7.656;2022-07-29T14:34:59;96307.00;;;25.00;39.76
44926;BME280;30662;51.210;7.656;2022-07-29T14:37:25;96317.81;;;24.92;40.17
44926;BME280;30662;51.210;7.656;2022-07-29T14:39:51;96311.50;;;24.79;40.22
44926;BME280;30662;51.210;7.656;2022-07-29T14:42:17;96309.84;;;24.95;40.06
44926;BME280;30662;51.210;7.656;2022-07-29T14:44:43;96317.66;;;24.88;39.57
44926;BME280;30662;51.210;7.656;2022-07-29T14:47:10;96315.72;;;24.97;40.20
44926;BME280;30662;51.210;7.656;2022-07-29T14:49:36;96316.81;;;24.96;40.29
44926;BME280;30662;51.210;7.656;2022-07-29T14:52:02;96308.34;;;24.77;41.46
44926;BME280;30662;51.210;7.656;2022-07-29T14:54:28;96320.09;;;24.55;40.92
44926;BME280;30662;51.210;7.656;2022-07-29T14:56:54;96320.09;;;24.46;40.49
44926;BME280;30662;51.210;7.656;2022-07-29T14:59:22;96327.09;;;24.39;40.74
44926;BME280;30662;51.210;7.656;2022-07-29T15:01:48;96324.09;;;24.49;41.57
44926;BME280;30662;51.210;7.656;2022-07-29T15:04:15;96318.53;;;24.37;42.92
44926;BME280;30662;51.210;7.656;2022-07-29T15:06:41;96317.22;;;24.69;42.15
44926;BME280;30662;51.210;7.656;2022-07-29T15:09:07;96316.41;;;24.68;41.96
44926;BME280;30662;51.210;7.656;2022-07-29T15:11:33;96321.41;;;25.05;41.59
44926;BME280;30662;51.210;7.656;2022-07-29T15:14:04;96326.50;;;24.97;41.85
44926;BME280;30662;51.210;7.656;2022-07-29T15:16:30;96314.28;;;24.91;42.32
44926;BME280;30662;51.210;7.656;2022-07-29T15:18:56;96319.34;;;25.01;42.43
44926;BME280;30662;51.210;7.656;2022-07-29T15:21:26;96333.38;;;25.33;41.91
44926;BME280;30662;51.210;7.656;2022-07-29T15:23:55;96320.94;;;25.41;42.38
44926;BME280;30662;51.210;7.656;2022-07-29T15:26:29;96330.50;;;26.18;40.41
44926;BME280;30662;51.210;7.656;2022-07-29T15:28:56;96319.28;;;26.28;40.75
44926;BME280;30662;51.210;7.656;2022-07-29T15:31:22;96327.88;;;26.63;40.27
44926;BME280;30662;51.210;7.656;2022-07-29T15:33:48;96325.59;;;26.86;39.70
44926;BME280;30662;51.210;7.656;2022-07-29T15:36:14;96324.00;;;26.85;39.15
44926;BME280;30662;51.210;7.656;2022-07-29T15:39:00;96313.19;;;26.85;39.02
44926;BME280;30662;51.210;7.656;2022-07-29T15:41:26;96310.34;;;26.70;39.52
44926;BME280;30662;51.210;7.656;2022-07-29T15:43:52;96319.69;;;26.60;40.04
44926;BME280;30662;51.210;7.656;2022-07-29T15:46:19;96314.34;;;26.30;40.86
44926;BME280;30662;51.210;7.656;2022-07-29T15:49:05;96313.22;;;26.52;40.34
44926;BME280;30662;51.210;7.656;2022-07-29T15:51:31;96307.53;;;26.78;39.65
44926;BME280;30662;51.210;7.656;2022-07-29T15:53:57;96305.81;;;27.07;39.11
44926;BME280;30662;51.210;7.656;2022-07-29T15:56:24;96308.72;;;26.89;39.65
44926;BME280;30662;51.210;7.656;2022-07-29T15:58:50;96311.88;;;27.04;39.43
44926;BME280;30662;51.210;7.656;2022-07-29T16:01:16;96312.31;;;26.93;39.66
44926;BME280;30662;51.210;7.656;2022-07-29T16:03:42;96314.03;;;26.65;40.56
44926;BME280;30662;51.210;7.656;2022-07-29T16:06:12;96315.00;;;26.93;39.97
44926;BME280;30662;51.210;7.656;2022-07-29T16:08:38;96317.56;;;26.65;40.53
44926;BME280;30662;51.210;7.656;2022-07-29T16:11:04;96323.25;;;26.52;41.07
44926;BME280;30662;51.210;7.656;2022-07-29T16:13:30;96326.31;;;26.62;40.75
44926;BME280;30662;51.210;7.656;2022-07-29T16:15:56;96327.53;;;26.53;40.92
44926;BME280;30662;51.210;7.656;2022-07-29T16:18:31;96315.56;;;26.87;40.14
44926;BME280;30662;51.210;7.656;2022-07-29T16:20:57;96326.75;;;26.64;41.10
44926;BME280;30662;51.210;7.656;2022-07-29T16:23:23;96323.16;;;26.60;40.66
44926;BME280;30662;51.210;7.656;2022-07-29T16:25:49;96322.75;;;26.29;41.30
44926;BME280;30662;51.210;7.656;2022-07-29T16:28:27;96318.13;;;25.96;41.66
44926;BME280;30662;51.210;7.656;2022-07-29T16:30:52;96330.03;;;26.37;41.82
44926;BME280;30662;51.210;7.656;2022-07-29T16:33:18;96325.69;;;26.03;42.37
44926;BME280;30662;51.210;7.656;2022-07-29T16:35:44;96328.47;;;25.94;42.20
44926;BME280;30662;51.210;7.656;2022-07-29T16:38:10;96328.66;;;25.89;42.91
44926;BME280;30662;51.210;7.656;2022-07-29T16:40:36;96323.63;;;26.21;42.16
44926;BME280;30662;51.210;7.656;2022-07-29T16:43:03;96317.97;;;26.13;41.85
44926;BME280;30662;51.210;7.656;2022-07-29T16:45:31;96321.88;;;26.04;41.51
44926;BME280;30662;51.210;7.656;2022-07-29T16:48:11;96330.88;;;25.87;41.52
44926;BME280;30662;51.210;7.656;2022-07-29T16:50:37;96342.72;;;25.74;42.11
44926;BME280;30662;51.210;7.656;2022-07-29T16:53:03;96340.34;;;25.64;42.13
44926;BME280;30662;51.210;7.656;2022-07-29T16:55:29;96342.75;;;25.56;42.27
44926;BME280;30662;51.210;7.656;2022-07-29T16:57:55;96343.72;;;25.90;41.84
44926;BME280;30662;51.210;7.656;2022-07-29T17:00:21;96345.75;;;25.64;42.74
44926;BME280;30662;51.210;7.656;2022-07-29T17:02:48;96350.50;;;25.96;41.78
44926;BME280;30662;51.210;7.656;2022-07-29T17:05:14;96353.34;;;25.79;43.10
44926;BME280;30662;51.210;7.656;2022-07-29T17:07:40;96351.47;;;25.92;42.29
44926;BME280;30662;51.210;7.656;2022-07-29T17:10:08;96353.75;;;25.51;42.51
44926;BME280;30662;51.210;7.656;2022-07-29T17:12:36;96350.22;;;25.60;42.66
44926;BME280;30662;51.210;7.656;2022-07-29T17:15:04;96357.00;;;25.36;43.28
44926;BME280;30662;51.210;7.656;2022-07-29T17:17:30;96362.97;;;25.50;43.41
44926;BME280;30662;51.210;7.656;2022-07-29T17:20:16;96355.22;;;25.40;43.16
44926;BME280;30662;51.210;7.656;2022-07-29T17:22:43;96359.63;;;25.15;44.18
44926;BME280;30662;51.210;7.656;2022-07-29T17:25:09;96362.44;;;25.19;44.10
44926;BME280;30662;51.210;7.656;2022-07-29T17:27:35;96363.28;;;25.11;44.34
44926;BME280;30662;51.210;7.656;2022-07-29T17:30:02;96356.50;;;24.87;45.60